Creek Data

    Home     View Charts     View Raw Data     Messages

ID Distance Battery Voltage Battery Current Internal Temp Internal Humidity External Temp Solar Input rssi snr Time Stamp Record
33795 14.8 3.99 -5 50 39 51 0 -73 8 03/01/2025 08:00 PM 15497
33794 14.8 3.93 -5 50 40 51 0 -72 8 03/01/2025 07:45 PM 15496
33793 0.0 3.93 -5 50 40 51 0 -72 8 03/01/2025 07:30 PM 15495
33792 14.8 3.99 -5 50 40 51 0 -73 8 03/01/2025 07:15 PM 15494
33791 14.8 3.93 -5 51 40 52 0 -73 7 03/01/2025 07:00 PM 15493
33790 14.8 3.93 -5 51 40 53 0.1 -72 8 03/01/2025 06:45 PM 15492
33789 14.8 3.99 -5 52 41 52 0 -73 8 03/01/2025 06:30 PM 15491
33788 14.8 3.94 -5 53 40 54 0.4 -72 8 03/01/2025 06:15 PM 15490
33787 14.8 3.93 -9 54 41 54 3.3 -73 8 03/01/2025 06:00 PM 15489
33786 14.8 4.02 6 55 41 55 4.5 -72 8 03/01/2025 05:45 PM 15488
33785 14.8 4.03 -7 56 41 56 4.5 -74 7 03/01/2025 05:30 PM 15487
33784 14.8 4.05 9 57 42 56 4.5 -74 8 03/01/2025 05:15 PM 15486
33783 14.8 3.98 11 58 42 56 4.5 -73 8 03/01/2025 05:00 PM 15485
33782 14.9 3.99 6 62 40 59 5.1 -74 8 03/01/2025 04:45 PM 15484
33781 14.8 3.99 6 61 42 59 5.1 -72 7 03/01/2025 04:30 PM 15483
33780 14.8 3.98 6 62 43 59 5.1 -72 8 03/01/2025 04:15 PM 15482
33779 15.0 3.98 6 65 41 61 5.1 -73 7 03/01/2025 04:00 PM 15481
33778 14.9 4.13 6 67 41 60 5.1 -71 8 03/01/2025 03:45 PM 15480
33777 14.9 3.98 6 71 40 62 5.1 -76 8 03/01/2025 03:30 PM 15479
33776 15.0 3.98 6 75 37 66 5.1 -73 8 03/01/2025 03:00 PM 15477
33775 14.9 3.98 0 76 36 68 5.1 -75 8 03/01/2025 02:30 PM 15475
33774 14.9 4.02 0 74 36 66 5.1 -73 8 03/01/2025 02:15 PM 15474
33773 15.0 3.98 6 75 36 66 5.1 -74 7 03/01/2025 02:00 PM 15473
33772 15.0 3.98 6 75 35 67 5.1 -74 7 03/01/2025 01:45 PM 15472
33771 14.9 4.13 6 72 36 66 5.1 -72 8 03/01/2025 01:30 PM 15471